Time,TemperatureF,DewpointF,PressureIn,WindDirection,WindDirectionDegrees,WindSpeedMPH,WindSpeedGustMPH,Humidity,HourlyPrecipIn,Conditions,Clouds,dailyrainin,SoftwareType,DateUTC
2013-02-22 00:00:00,36.5,35.4,30.23,North,357,1.0,4.0,96,0.15,,,0.34,meteohub,2013-02-22 05:00:00,
2013-02-22 00:05:00,36.5,35.4,30.23,NNE,15,0.0,3.0,96,0.13,,,0.36,meteohub,2013-02-22 05:05:00,
2013-02-22 00:10:00,36.3,35.2,30.22,North,8,3.0,3.0,96,0.12,,,0.37,meteohub,2013-02-22 05:10:00,
2013-02-22 00:15:00,36.3,35.2,30.23,North,8,0.0,2.0,96,0.11,,,0.38,meteohub,2013-02-22 05:15:00,
2013-02-22 00:20:00,36.3,35.2,30.24,WNW,295,1.0,4.0,96,0.11,,,0.39,meteohub,2013-02-22 05:20:00,
2013-02-22 00:25:00,36.3,35.2,30.25,North,6,0.0,6.0,96,0.11,,,0.40,meteohub,2013-02-22 05:25:00,
2013-02-22 00:30:00,36.3,35.2,30.24,NNW,338,0.0,6.0,96,0.10,,,0.40,meteohub,2013-02-22 05:30:00,
2013-02-22 00:35:00,36.5,35.8,30.27,West,265,0.0,6.0,97,0.11,,,0.41,meteohub,2013-02-22 05:35:00,
2013-02-22 00:40:00,36.5,35.8,30.28,NE,42,0.0,4.0,97,0.12,,,0.43,meteohub,2013-02-22 05:40:00,
2013-02-22 00:45:00,36.5,35.8,30.25,NNW,346,1.0,4.0,97,0.12,,,0.44,meteohub,2013-02-22 05:45:00,
2013-02-22 00:50:00,36.3,35.2,30.25,East,91,0.0,4.0,96,0.13,,,0.46,meteohub,2013-02-22 05:50:00,
2013-02-22 00:55:00,36.3,35.2,30.25,NE,51,2.0,3.0,96,0.11,,,0.46,meteohub,2013-02-22 05:55:00,
2013-02-22 01:00:00,36.1,35.1,30.24,North,8,0.0,3.0,96,0.11,,,0.47,meteohub,2013-02-22 06:00:00,
2013-02-22 01:05:00,36.1,35.1,30.24,NNE,18,1.0,3.0,96,0.11,,,0.48,meteohub,2013-02-22 06:05:00,
2013-02-22 01:10:00,36.1,35.1,30.24,NNE,23,4.0,4.0,96,0.11,,,0.49,meteohub,2013-02-22 06:10:00,
2013-02-22 01:15:00,36.0,34.9,30.24,SSE,149,2.0,5.0,96,0.12,,,0.50,meteohub,2013-02-22 06:15:00,
2013-02-22 01:20:00,36.1,35.4,30.25,SE,132,0.0,5.0,97,0.11,,,0.50,meteohub,2013-02-22 06:20:00,
2013-02-22 01:25:00,36.1,35.4,30.25,SE,135,0.0,4.0,97,0.11,,,0.51,meteohub,2013-02-22 06:25:00,
2013-02-22 01:30:00,36.1,35.1,30.25,NE,41,0.0,2.0,96,0.11,,,0.52,meteohub,2013-02-22 06:30:00,
2013-02-22 01:35:00,36.0,34.9,30.24,NNE,20,0.0,2.0,96,0.11,,,0.53,meteohub,2013-02-22 06:35:00,
2013-02-22 01:40:00,36.0,34.9,30.25,North,5,0.0,2.0,96,0.11,,,0.54,meteohub,2013-02-22 06:40:00,
2013-02-22 01:45:00,36.0,34.9,30.25,NNE,29,0.0,2.0,96,0.09,,,0.54,meteohub,2013-02-22 06:45:00,
2013-02-22 01:50:00,36.0,34.9,30.25,NE,39,0.0,2.0,96,0.09,,,0.55,meteohub,2013-02-22 06:50:00,
2013-02-22 01:56:00,36.0,34.9,30.25,NE,39,0.0,2.0,96,0.09,,,0.56,meteohub,2013-02-22 06:56:00,
2013-02-22 02:01:00,36.1,35.1,30.26,West,262,1.0,2.0,96,0.10,,,0.57,meteohub,2013-02-22 07:01:00,
2013-02-22 02:06:00,36.1,35.4,30.25,North,356,0.0,2.0,97,0.09,,,0.57,meteohub,2013-02-22 07:06:00,
2013-02-22 02:11:00,36.1,35.4,30.23,East,84,0.0,2.0,97,0.09,,,0.58,meteohub,2013-02-22 07:11:00,
2013-02-22 02:16:00,36.0,35.2,30.22,ENE,62,0.0,2.0,97,0.09,,,0.59,meteohub,2013-02-22 07:16:00,
2013-02-22 02:21:00,36.1,35.4,30.23,ENE,62,0.0,2.0,97,0.10,,,0.60,meteohub,2013-02-22 07:21:00,
2013-02-22 02:26:00,36.1,35.4,30.24,SW,236,0.0,2.0,97,0.10,,,0.61,meteohub,2013-02-22 07:26:00,
2013-02-22 02:31:00,36.1,35.4,30.24,SW,233,0.0,1.0,97,0.08,,,0.61,meteohub,2013-02-22 07:31:00,
2013-02-22 02:36:00,36.1,35.4,30.22,South,174,0.0,1.0,97,0.09,,,0.62,meteohub,2013-02-22 07:36:00,
2013-02-22 02:41:00,36.1,35.4,30.22,South,176,0.0,1.0,97,0.10,,,0.64,meteohub,2013-02-22 07:41:00,
2013-02-22 02:46:00,35.2,34.5,30.22,West,280,0.0,1.0,97,0.09,,,0.64,meteohub,2013-02-22 07:46:00,
2013-02-22 02:51:00,35.2,34.5,30.22,West,280,0.0,1.0,97,0.10,,,0.65,meteohub,2013-02-22 07:51:00,
2013-02-22 08:36:00,33.4,31.1,30.22,North,-999,-999.0,-999.0,91,-99.99,,,0.65,meteohub,2013-02-22 13:36:00,
2013-02-22 08:41:00,33.4,31.3,30.22,North,-999,-999.0,-999.0,92,0.00,,,0.65,meteohub,2013-02-22 13:41:00,
2013-02-22 08:46:00,33.3,31.1,30.22,NE,46,1.0,2.0,92,0.00,,,0.65,meteohub,2013-02-22 13:46:00,
2013-02-22 08:51:00,33.3,30.9,30.22,NNE,17,0.0,4.0,91,0.00,,,0.65,meteohub,2013-02-22 13:51:00,
2013-02-22 08:56:00,33.3,30.6,30.23,North,11,0.0,4.0,90,0.00,,,0.65,meteohub,2013-02-22 13:56:00,
2013-02-22 09:01:00,33.3,31.5,30.22,North,6,1.0,4.0,93,0.00,,,0.65,meteohub,2013-02-22 14:01:00,
2013-02-22 09:06:00,33.3,31.1,30.22,East,95,1.0,3.0,92,0.00,,,0.65,meteohub,2013-02-22 14:06:00,
2013-02-22 09:11:00,33.3,30.9,30.22,East,89,2.0,3.0,91,0.00,,,0.65,meteohub,2013-02-22 14:11:00,
2013-02-22 09:16:00,33.3,31.1,30.23,North,10,0.0,4.0,92,0.00,,,0.65,meteohub,2013-02-22 14:16:00,
2013-02-22 09:21:00,33.3,31.1,30.23,NE,48,2.0,4.0,92,0.00,,,0.65,meteohub,2013-02-22 14:21:00,
2013-02-22 09:26:00,33.3,30.9,30.23,NNW,336,0.0,4.0,91,0.00,,,0.65,meteohub,2013-02-22 14:26:00,
2013-02-22 09:31:00,33.1,30.7,30.22,NE,39,0.0,5.0,91,0.00,,,0.65,meteohub,2013-02-22 14:31:00,
2013-02-22 09:36:00,33.1,31.1,30.22,NE,46,1.0,5.0,92,0.00,,,0.65,meteohub,2013-02-22 14:36:00,
2013-02-22 09:41:00,32.9,30.9,30.22,North,11,0.0,4.0,92,0.00,,,0.65,meteohub,2013-02-22 14:41:00,
2013-02-22 09:46:00,32.7,30.9,30.22,ENE,73,1.0,3.0,93,0.00,,,0.65,meteohub,2013-02-22 14:46:00,
2013-02-22 09:51:00,32.9,30.9,30.22,East,82,0.0,3.0,92,0.00,,,0.65,meteohub,2013-02-22 14:51:00,
2013-02-22 09:56:00,33.1,31.3,30.22,ENE,61,0.0,3.0,93,0.00,,,0.65,meteohub,2013-02-22 14:56:00,
2013-02-22 10:01:00,33.3,31.6,30.22,NNE,18,0.0,3.0,94,0.00,,,0.65,meteohub,2013-02-22 15:01:00,
2013-02-22 10:06:00,33.3,31.6,30.22,NE,34,0.0,2.0,94,0.00,,,0.65,meteohub,2013-02-22 15:06:00,
2013-02-22 10:11:00,33.3,31.6,30.22,NE,34,0.0,2.0,94,0.00,,,0.65,meteohub,2013-02-22 15:11:00,
2013-02-22 10:16:00,33.4,31.6,30.22,NNW,338,1.0,2.0,93,0.00,,,0.65,meteohub,2013-02-22 15:16:00,
2013-02-22 10:21:00,33.3,31.6,30.22,North,4,0.0,2.0,94,0.00,,,0.65,meteohub,2013-02-22 15:21:00,
2013-02-22 10:26:00,33.4,32.2,30.22,ENE,72,0.0,2.0,95,0.00,,,0.65,meteohub,2013-02-22 15:26:00,
2013-02-22 10:31:00,33.6,32.4,30.22,North,6,0.0,2.0,95,0.00,,,0.65,meteohub,2013-02-22 15:31:00,
2013-02-22 10:36:00,33.6,32.4,30.22,NE,39,0.0,1.0,95,0.00,,,0.65,meteohub,2013-02-22 15:36:00,
2013-02-22 10:41:00,34.0,32.9,30.22,ENE,77,1.0,1.0,96,0.00,,,0.65,meteohub,2013-02-22 15:41:00,
2013-02-22 10:46:00,34.0,32.7,30.22,ENE,75,0.0,1.0,95,0.00,,,0.65,meteohub,2013-02-22 15:46:00,
2013-02-22 10:51:00,34.0,32.7,30.22,East,81,0.0,1.0,95,0.01,,,0.66,meteohub,2013-02-22 15:51:00,
2013-02-22 10:56:00,34.2,33.1,30.22,NNE,30,1.0,1.0,96,0.01,,,0.66,meteohub,2013-02-22 15:56:00,
2013-02-22 11:01:00,34.0,32.7,30.22,East,91,0.0,1.0,95,0.01,,,0.66,meteohub,2013-02-22 16:01:00,
2013-02-22 11:07:00,34.0,32.9,30.22,North,8,0.0,1.0,96,0.01,,,0.66,meteohub,2013-02-22 16:07:00,
2013-02-22 11:12:00,34.0,32.7,30.21,North,4,0.0,1.0,95,0.01,,,0.66,meteohub,2013-02-22 16:12:00,
2013-02-22 11:17:00,34.2,32.9,30.21,North,353,2.0,2.0,95,0.01,,,0.66,meteohub,2013-02-22 16:17:00,
2013-02-22 11:22:00,34.2,32.9,30.21,ENE,73,0.0,3.0,95,0.01,,,0.66,meteohub,2013-02-22 16:22:00,
2013-02-22 11:27:00,34.2,33.1,30.20,ENE,75,0.0,3.0,96,0.01,,,0.66,meteohub,2013-02-22 16:27:00,
2013-02-22 11:32:00,34.2,33.1,30.20,NE,46,1.0,3.0,96,0.01,,,0.66,meteohub,2013-02-22 16:32:00,
2013-02-22 11:37:00,34.2,33.1,30.20,NNE,15,0.0,3.0,96,0.01,,,0.66,meteohub,2013-02-22 16:37:00,
2013-02-22 11:42:00,34.0,32.9,30.20,NNE,16,0.0,3.0,96,0.01,,,0.66,meteohub,2013-02-22 16:42:00,
2013-02-22 11:47:00,34.0,32.9,30.20,NNE,18,0.0,3.0,96,0.01,,,0.66,meteohub,2013-02-22 16:47:00,
2013-02-22 11:52:00,34.2,33.1,30.20,NNW,338,0.0,4.0,96,0.00,,,0.66,meteohub,2013-02-22 16:52:00,
2013-02-22 11:57:00,34.3,33.3,30.20,NW,308,0.0,4.0,96,0.00,,,0.66,meteohub,2013-02-22 16:57:00,
2013-02-22 12:02:00,34.3,33.3,30.20,North,0,2.0,3.0,96,0.00,,,0.66,meteohub,2013-02-22 17:02:00,
2013-02-22 12:07:00,34.2,33.1,30.20,NW,316,1.0,4.0,96,0.00,,,0.66,meteohub,2013-02-22 17:07:00,
2013-02-22 12:12:00,34.2,33.1,30.19,NNE,13,1.0,4.0,96,0.00,,,0.66,meteohub,2013-02-22 17:12:00,
2013-02-22 12:17:00,34.2,33.1,30.19,NE,46,3.0,4.0,96,0.00,,,0.66,meteohub,2013-02-22 17:17:00,
2013-02-22 12:22:00,34.2,33.1,30.19,NNW,329,0.0,3.0,96,0.00,,,0.66,meteohub,2013-02-22 17:22:00,
2013-02-22 12:27:00,34.3,33.6,30.19,NNW,341,0.0,3.0,97,0.00,,,0.66,meteohub,2013-02-22 17:27:00,
2013-02-22 12:32:00,34.3,33.3,30.19,NNE,12,0.0,3.0,96,0.00,,,0.66,meteohub,2013-02-22 17:32:00,
2013-02-22 12:37:00,34.3,33.3,30.19,North,8,0.0,3.0,96,0.00,,,0.66,meteohub,2013-02-22 17:37:00,
2013-02-22 12:42:00,34.3,33.3,30.19,ENE,74,0.0,3.0,96,0.01,,,0.67,meteohub,2013-02-22 17:42:00,
2013-02-22 12:47:00,34.3,33.3,30.18,North,10,0.0,2.0,96,0.01,,,0.67,meteohub,2013-02-22 17:47:00,
2013-02-22 12:52:00,34.5,33.8,30.18,ENE,76,0.0,2.0,97,0.01,,,0.67,meteohub,2013-02-22 17:52:00,
2013-02-22 12:57:00,34.5,33.8,30.18,North,353,0.0,2.0,97,0.01,,,0.67,meteohub,2013-02-22 17:57:00,
2013-02-22 13:02:00,34.7,34.0,30.18,NE,48,1.0,1.0,97,0.01,,,0.67,meteohub,2013-02-22 18:02:00,
2013-02-22 13:07:00,34.5,33.4,30.19,ENE,64,0.0,1.0,96,0.01,,,0.67,meteohub,2013-02-22 18:07:00,
2013-02-22 13:12:00,34.5,33.4,30.18,East,93,0.0,2.0,96,0.01,,,0.67,meteohub,2013-02-22 18:12:00,
2013-02-22 13:17:00,34.7,34.0,30.18,North,10,0.0,2.0,97,0.01,,,0.67,meteohub,2013-02-22 18:17:00,
2013-02-22 13:22:00,34.9,34.2,30.18,North,8,0.0,1.0,97,0.01,,,0.67,meteohub,2013-02-22 18:22:00,
2013-02-22 13:27:00,35.2,34.5,30.18,East,93,0.0,1.0,97,0.01,,,0.67,meteohub,2013-02-22 18:27:00,
2013-02-22 13:32:00,35.6,34.9,30.18,East,93,0.0,1.0,97,0.01,,,0.67,meteohub,2013-02-22 18:32:00,
2013-02-22 13:37:00,36.0,35.2,30.17,ESE,102,0.0,0.0,97,0.00,,,0.67,meteohub,2013-02-22 18:37:00,
2013-02-22 13:42:00,36.0,35.2,30.17,SE,126,0.0,1.0,97,0.00,,,0.67,meteohub,2013-02-22 18:42:00,
2013-02-22 13:47:00,36.0,35.2,30.17,East,90,0.0,1.0,97,0.00,,,0.67,meteohub,2013-02-22 18:47:00,
2013-02-22 13:52:00,36.0,35.2,30.17,NNW,336,0.0,1.0,97,0.01,,,0.68,meteohub,2013-02-22 18:52:00,
2013-02-22 13:57:00,36.1,35.4,30.17,NNE,22,0.0,1.0,97,0.01,,,0.68,meteohub,2013-02-22 18:57:00,
2013-02-22 14:02:00,36.3,35.6,30.17,East,99,0.0,1.0,97,0.01,,,0.68,meteohub,2013-02-22 19:02:00,
2013-02-22 14:07:00,36.3,35.6,30.17,SSE,160,0.0,1.0,97,0.01,,,0.68,meteohub,2013-02-22 19:07:00,
2013-02-22 14:12:00,36.3,35.6,30.17,SSE,166,0.0,1.0,97,0.01,,,0.68,meteohub,2013-02-22 19:12:00,
2013-02-22 14:17:00,36.3,35.6,30.17,East,86,0.0,1.0,97,0.01,,,0.68,meteohub,2013-02-22 19:17:00,
2013-02-22 14:22:00,36.3,35.6,30.17,East,91,1.0,2.0,97,0.01,,,0.68,meteohub,2013-02-22 19:22:00,
2013-02-22 14:27:00,36.3,35.6,30.16,East,97,0.0,2.0,97,0.01,,,0.68,meteohub,2013-02-22 19:27:00,
2013-02-22 14:32:00,36.3,35.6,30.16,East,79,0.0,1.0,97,0.01,,,0.68,meteohub,2013-02-22 19:32:00,
2013-02-22 14:37:00,36.7,36.0,30.16,East,82,0.0,1.0,97,0.01,,,0.68,meteohub,2013-02-22 19:37:00,
2013-02-22 14:42:00,36.9,36.3,30.16,East,83,0.0,1.0,98,0.01,,,0.68,meteohub,2013-02-22 19:42:00,
2013-02-22 14:47:00,37.0,36.3,30.15,SE,129,0.0,1.0,97,0.01,,,0.68,meteohub,2013-02-22 19:47:00,
2013-02-22 14:52:00,36.9,36.1,30.15,East,95,0.0,1.0,97,0.00,,,0.68,meteohub,2013-02-22 19:52:00,
2013-02-22 14:57:00,36.9,36.1,30.14,East,95,0.0,1.0,97,0.00,,,0.68,meteohub,2013-02-22 19:57:00,
2013-02-22 15:02:00,37.2,36.5,30.15,East,94,0.0,1.0,97,0.00,,,0.68,meteohub,2013-02-22 20:02:00,
2013-02-22 15:07:00,37.4,36.7,30.15,SSE,148,0.0,1.0,97,0.00,,,0.68,meteohub,2013-02-22 20:07:00,
2013-02-22 15:12:00,37.6,36.9,30.16,SSE,148,0.0,1.0,97,0.00,,,0.68,meteohub,2013-02-22 20:12:00,
2013-02-22 15:17:00,37.8,37.0,30.16,SSE,158,1.0,1.0,97,0.00,,,0.68,meteohub,2013-02-22 20:17:00,
2013-02-22 15:22:00,37.8,37.0,30.15,SSE,151,0.0,1.0,97,0.00,,,0.68,meteohub,2013-02-22 20:22:00,
2013-02-22 15:27:00,37.9,37.2,30.15,East,93,1.0,1.0,97,0.01,,,0.69,meteohub,2013-02-22 20:27:00,
2013-02-22 15:32:00,37.9,37.2,30.14,East,95,0.0,1.0,97,0.01,,,0.69,meteohub,2013-02-22 20:32:00,
2013-02-22 15:37:00,37.9,37.2,30.14,East,94,0.0,1.0,97,0.01,,,0.69,meteohub,2013-02-22 20:37:00,
2013-02-22 15:42:00,38.3,37.8,30.14,East,94,0.0,1.0,98,0.01,,,0.69,meteohub,2013-02-22 20:42:00,
2013-02-22 15:47:00,38.5,37.9,30.14,SE,124,0.0,1.0,98,0.01,,,0.69,meteohub,2013-02-22 20:47:00,
2013-02-22 15:52:00,38.7,38.1,30.15,SSE,158,0.0,1.0,98,0.01,,,0.69,meteohub,2013-02-22 20:52:00,
2013-02-22 15:57:00,38.8,38.3,30.14,SE,143,0.0,1.0,98,0.01,,,0.69,meteohub,2013-02-22 20:57:00,
2013-02-22 16:02:00,39.0,38.5,30.15,SSE,148,1.0,1.0,98,0.01,,,0.69,meteohub,2013-02-22 21:02:00,
2013-02-22 16:07:00,39.0,38.3,30.14,SE,146,0.0,1.0,97,0.01,,,0.69,meteohub,2013-02-22 21:07:00,
2013-02-22 16:12:00,39.0,38.3,30.14,South,181,0.0,1.0,97,0.01,,,0.69,meteohub,2013-02-22 21:12:00,
2013-02-22 16:17:00,39.2,38.5,30.14,SSW,193,0.0,1.0,97,0.01,,,0.69,meteohub,2013-02-22 21:17:00,
2013-02-22 16:22:00,39.2,38.5,30.14,SE,138,0.0,1.0,97,0.00,,,0.69,meteohub,2013-02-22 21:22:00,
2013-02-22 16:27:00,39.4,38.8,30.14,ESE,105,0.0,1.0,98,0.00,,,0.69,meteohub,2013-02-22 21:27:00,
2013-02-22 16:32:00,39.7,39.2,30.14,ESE,105,0.0,1.0,98,0.00,,,0.69,meteohub,2013-02-22 21:32:00,
2013-02-22 16:37:00,39.6,38.8,30.14,ESE,105,0.0,1.0,97,0.00,,,0.69,meteohub,2013-02-22 21:37:00,
2013-02-22 16:42:00,39.6,38.8,30.13,East,96,1.0,1.0,97,0.00,,,0.69,meteohub,2013-02-22 21:42:00,
2013-02-22 16:47:00,39.6,39.0,30.13,SE,129,0.0,2.0,98,0.00,,,0.69,meteohub,2013-02-22 21:47:00,
2013-02-22 16:52:00,39.7,39.2,30.13,SE,126,0.0,2.0,98,0.00,,,0.69,meteohub,2013-02-22 21:52:00,
2013-02-22 16:57:00,39.7,39.2,30.12,SE,126,0.0,2.0,98,0.00,,,0.69,meteohub,2013-02-22 21:57:00,
2013-02-22 17:02:00,39.9,39.4,30.12,SE,125,0.0,1.0,98,0.00,,,0.69,meteohub,2013-02-22 22:02:00,
2013-02-22 17:07:00,39.9,39.4,30.13,SE,125,0.0,1.0,98,0.00,,,0.69,meteohub,2013-02-22 22:07:00,
2013-02-22 17:12:00,39.9,39.4,30.12,SE,125,0.0,1.0,98,0.00,,,0.69,meteohub,2013-02-22 22:12:00,
2013-02-22 17:17:00,39.9,39.4,30.12,SE,131,0.0,1.0,98,0.00,,,0.69,meteohub,2013-02-22 22:17:00,
2013-02-22 17:22:00,40.1,39.6,30.12,SSW,203,0.0,1.0,98,0.00,,,0.69,meteohub,2013-02-22 22:22:00,
2013-02-22 17:27:00,39.9,39.4,30.12,SSE,148,0.0,1.0,98,0.00,,,0.69,meteohub,2013-02-22 22:27:00,
2013-02-22 17:32:00,39.9,39.4,30.12,SSE,152,0.0,1.0,98,0.00,,,0.69,meteohub,2013-02-22 22:32:00,
2013-02-22 17:37:00,39.9,39.2,30.12,SE,141,0.0,2.0,97,0.00,,,0.69,meteohub,2013-02-22 22:37:00,
2013-02-22 17:42:00,39.9,39.4,30.12,SE,146,1.0,2.0,98,0.00,,,0.69,meteohub,2013-02-22 22:42:00,
2013-02-22 17:47:00,39.7,39.2,30.12,SSE,153,0.0,2.0,98,0.00,,,0.69,meteohub,2013-02-22 22:47:00,
2013-02-22 17:52:00,39.7,39.2,30.12,SE,132,0.0,2.0,98,0.00,,,0.69,meteohub,2013-02-22 22:52:00,
2013-02-22 17:57:00,39.7,39.2,30.13,SE,132,0.0,2.0,98,0.00,,,0.69,meteohub,2013-02-22 22:57:00,
2013-02-22 18:02:00,39.7,39.2,30.13,SE,132,0.0,1.0,98,0.00,,,0.69,meteohub,2013-02-22 23:02:00,
2013-02-22 18:07:00,39.7,39.2,30.14,SSE,160,0.0,1.0,98,0.00,,,0.69,meteohub,2013-02-22 23:07:00,
2013-02-22 18:12:00,39.7,39.2,30.14,SE,132,0.0,0.0,98,0.00,,,0.69,meteohub,2013-02-22 23:12:00,
2013-02-22 18:17:00,39.7,39.2,30.14,SE,141,1.0,1.0,98,0.00,,,0.69,meteohub,2013-02-22 23:17:00,
2013-02-22 18:22:00,39.6,39.0,30.14,SSW,198,0.0,2.0,98,0.00,,,0.69,meteohub,2013-02-22 23:22:00,
2013-02-22 18:27:00,39.6,39.0,30.14,SW,215,0.0,2.0,98,0.00,,,0.69,meteohub,2013-02-22 23:27:00,
2013-02-22 18:32:00,39.6,39.0,30.13,ESE,111,0.0,2.0,98,0.00,,,0.69,meteohub,2013-02-22 23:32:00,
2013-02-22 18:37:00,39.4,38.8,30.13,SE,143,0.0,1.0,98,0.00,,,0.69,meteohub,2013-02-22 23:37:00,
2013-02-22 18:42:00,39.4,38.8,30.13,SW,222,0.0,2.0,98,0.00,,,0.69,meteohub,2013-02-22 23:42:00,
2013-02-22 18:47:00,39.4,38.8,30.14,SW,222,0.0,2.0,98,0.00,,,0.69,meteohub,2013-02-22 23:47:00,
2013-02-22 18:52:00,39.4,38.8,30.13,SW,222,0.0,0.0,98,0.00,,,0.69,meteohub,2013-02-22 23:52:00,
2013-02-22 18:57:00,39.4,38.8,30.14,SW,222,0.0,0.0,98,0.00,,,0.69,meteohub,2013-02-22 23:57:00,
2013-02-22 19:02:00,39.4,38.8,30.14,West,260,0.0,1.0,98,0.00,,,0.69,meteohub,2013-02-23 00:02:00,
2013-02-22 19:07:00,39.2,38.7,30.14,West,260,0.0,1.0,98,0.00,,,0.00,meteohub,2013-02-23 00:07:00,
2013-02-22 19:12:00,39.0,38.5,30.13,ENE,62,0.0,1.0,98,0.00,,,0.00,meteohub,2013-02-23 00:12:00,
2013-02-22 19:17:00,39.0,38.5,30.14,North,357,0.0,1.0,98,0.00,,,0.00,meteohub,2013-02-23 00:17:00,
2013-02-22 19:22:00,38.8,38.3,30.14,North,356,0.0,2.0,98,0.00,,,0.00,meteohub,2013-02-23 00:22:00,
2013-02-22 19:27:00,38.8,38.3,30.14,North,349,0.0,2.0,98,0.00,,,0.00,meteohub,2013-02-23 00:27:00,
2013-02-22 19:32:00,38.8,38.3,30.14,East,93,1.0,2.0,98,0.00,,,0.00,meteohub,2013-02-23 00:32:00,
2013-02-22 19:37:00,38.8,38.3,30.14,ENE,74,0.0,2.0,98,0.00,,,0.00,meteohub,2013-02-23 00:37:00,
2013-02-22 19:42:00,38.8,38.3,30.14,ENE,73,0.0,2.0,98,0.00,,,0.00,meteohub,2013-02-23 00:42:00,
2013-02-22 19:47:00,38.8,38.3,30.14,East,91,0.0,2.0,98,0.00,,,0.00,meteohub,2013-02-23 00:47:00,
2013-02-22 19:52:00,38.8,38.3,30.14,SE,136,0.0,1.0,98,0.00,,,0.00,meteohub,2013-02-23 00:52:00,
2013-02-22 19:57:00,38.8,38.3,30.14,ESE,111,0.0,1.0,98,0.00,,,0.00,meteohub,2013-02-23 00:57:00,
2013-02-22 20:02:00,39.0,38.5,30.14,SE,133,0.0,1.0,98,0.00,,,0.00,meteohub,2013-02-23 01:02:00,
2013-02-22 20:07:00,38.8,38.3,30.14,SW,229,0.0,1.0,98,0.00,,,0.00,meteohub,2013-02-23 01:07:00,
2013-02-22 20:12:00,38.8,38.3,30.14,SW,219,0.0,1.0,98,0.00,,,0.00,meteohub,2013-02-23 01:12:00,
2013-02-22 20:17:00,38.8,38.3,30.15,SSW,204,0.0,1.0,98,0.00,,,0.00,meteohub,2013-02-23 01:17:00,
2013-02-22 20:22:00,38.8,38.3,30.15,SSE,160,2.0,2.0,98,0.00,,,0.00,meteohub,2013-02-23 01:22:00,
2013-02-22 20:27:00,38.7,38.1,30.16,SSW,205,0.0,2.0,98,0.00,,,0.00,meteohub,2013-02-23 01:27:00,
2013-02-22 20:32:00,38.7,38.1,30.16,SE,127,1.0,2.0,98,0.00,,,0.00,meteohub,2013-02-23 01:32:00,
2013-02-22 20:37:00,38.7,38.1,30.16,SE,136,1.0,2.0,98,0.00,,,0.00,meteohub,2013-02-23 01:37:00,
2013-02-22 20:42:00,38.7,38.1,30.16,South,188,0.0,2.0,98,0.00,,,0.00,meteohub,2013-02-23 01:42:00,
2013-02-22 20:47:00,38.7,38.1,30.16,SSE,150,0.0,2.0,98,0.00,,,0.00,meteohub,2013-02-23 01:47:00,
2013-02-22 20:52:00,38.7,38.5,30.16,SSE,150,0.0,2.0,99,0.00,,,0.00,meteohub,2013-02-23 01:52:00,
2013-02-22 20:57:00,38.7,38.5,30.16,SSE,167,1.0,1.0,99,0.00,,,0.00,meteohub,2013-02-23 01:57:00,
2013-02-22 21:02:00,38.7,38.5,30.15,WSW,239,0.0,3.0,99,0.00,,,0.00,meteohub,2013-02-23 02:02:00,
2013-02-22 21:07:00,38.7,38.5,30.16,NW,314,0.0,3.0,99,0.00,,,0.00,meteohub,2013-02-23 02:07:00,
2013-02-22 21:12:00,38.8,38.7,30.16,WSW,255,0.0,3.0,99,0.01,,,0.01,meteohub,2013-02-23 02:12:00,
2013-02-22 21:17:00,38.8,38.7,30.16,West,270,1.0,2.0,99,0.01,,,0.01,meteohub,2013-02-23 02:17:00,
2013-02-22 21:22:00,38.8,38.7,30.16,WSW,256,0.0,2.0,99,0.01,,,0.01,meteohub,2013-02-23 02:22:00,
2013-02-22 21:27:00,38.8,38.7,30.16,WSW,257,0.0,2.0,99,0.01,,,0.01,meteohub,2013-02-23 02:27:00,
2013-02-22 21:32:00,38.8,38.7,30.15,WSW,256,0.0,2.0,99,0.01,,,0.01,meteohub,2013-02-23 02:32:00,
2013-02-22 21:37:00,38.8,38.7,30.15,WSW,257,0.0,1.0,99,0.01,,,0.01,meteohub,2013-02-23 02:37:00,
2013-02-22 21:42:00,38.8,38.7,30.15,NW,315,0.0,1.0,99,0.01,,,0.01,meteohub,2013-02-23 02:42:00,
2013-02-22 21:47:00,38.7,38.1,30.13,West,269,0.0,1.0,98,0.01,,,0.01,meteohub,2013-02-23 02:47:00,
2013-02-22 21:52:00,38.3,37.8,30.12,NNW,340,0.0,1.0,98,0.01,,,0.01,meteohub,2013-02-23 02:52:00,
2013-02-22 21:57:00,38.1,37.6,30.13,West,272,0.0,2.0,98,0.01,,,0.01,meteohub,2013-02-23 02:57:00,
2013-02-22 22:02:00,37.9,37.4,30.14,WSW,257,0.0,2.0,98,0.01,,,0.01,meteohub,2013-02-23 03:02:00,
2013-02-22 22:07:00,37.8,37.2,30.13,SSW,196,0.0,3.0,98,0.01,,,0.01,meteohub,2013-02-23 03:07:00,
2013-02-22 22:12:00,37.8,37.2,30.13,SSE,158,0.0,3.0,98,0.00,,,0.01,meteohub,2013-02-23 03:12:00,
2013-02-22 22:17:00,37.9,37.8,30.14,SW,233,0.0,2.0,99,0.00,,,0.01,meteohub,2013-02-23 03:17:00,
2013-02-22 22:22:00,37.9,37.8,30.13,SW,233,0.0,1.0,99,0.00,,,0.01,meteohub,2013-02-23 03:22:00,
2013-02-22 22:27:00,37.9,37.8,30.13,SE,142,0.0,1.0,99,0.00,,,0.01,meteohub,2013-02-23 03:27:00,
2013-02-22 22:32:00,37.8,37.6,30.13,SE,143,0.0,1.0,99,0.00,,,0.01,meteohub,2013-02-23 03:32:00,
2013-02-22 22:37:00,37.8,37.6,30.12,SE,139,1.0,1.0,99,0.00,,,0.01,meteohub,2013-02-23 03:37:00,
2013-02-22 22:42:00,37.8,37.6,30.12,SE,135,0.0,1.0,99,0.00,,,0.01,meteohub,2013-02-23 03:42:00,
2013-02-22 22:47:00,37.8,37.6,30.12,West,264,0.0,1.0,99,0.00,,,0.01,meteohub,2013-02-23 03:47:00,
2013-02-22 22:52:00,37.8,37.6,30.12,WNW,301,0.0,2.0,99,0.00,,,0.01,meteohub,2013-02-23 03:52:00,
2013-02-22 22:57:00,37.8,37.6,30.12,East,91,0.0,2.0,99,0.00,,,0.01,meteohub,2013-02-23 03:57:00,
2013-02-22 23:02:00,37.9,37.8,30.13,South,188,0.0,2.0,99,0.00,,,0.01,meteohub,2013-02-23 04:02:00,
2013-02-22 23:07:00,37.9,37.8,30.14,SSE,153,0.0,1.0,99,0.00,,,0.01,meteohub,2013-02-23 04:07:00,
2013-02-22 23:12:00,37.9,37.8,30.14,SW,228,1.0,1.0,99,0.00,,,0.01,meteohub,2013-02-23 04:12:00,
2013-02-22 23:17:00,38.1,37.9,30.15,ENE,77,0.0,2.0,99,0.00,,,0.01,meteohub,2013-02-23 04:17:00,
2013-02-22 23:22:00,38.1,37.9,30.15,SE,125,1.0,5.0,99,0.00,,,0.01,meteohub,2013-02-23 04:22:00,
2013-02-22 23:27:00,38.1,37.9,30.14,East,86,0.0,5.0,99,0.00,,,0.01,meteohub,2013-02-23 04:27:00,
2013-02-22 23:32:00,38.3,38.1,30.15,WSW,250,1.0,5.0,99,0.00,,,0.01,meteohub,2013-02-23 04:32:00,
2013-02-22 23:37:00,38.3,38.1,30.14,SE,126,0.0,3.0,99,0.01,,,0.02,meteohub,2013-02-23 04:37:00,
2013-02-22 23:42:00,38.5,38.3,30.14,ESE,119,0.0,2.0,99,0.01,,,0.02,meteohub,2013-02-23 04:42:00,
2013-02-22 23:47:00,38.5,38.3,30.14,NW,317,0.0,3.0,99,0.01,,,0.02,meteohub,2013-02-23 04:47:00,
2013-02-22 23:52:00,38.5,38.3,30.13,NNW,335,0.0,4.0,99,0.01,,,0.02,meteohub,2013-02-23 04:52:00,
2013-02-22 23:57:00,38.5,38.3,30.12,SE,139,1.0,4.0,99,0.01,,,0.02,meteohub,2013-02-23 04:57:00,